createdAt,value
2019-05-12T00:00:40.799Z,7.93
2019-05-12T00:03:09.471Z,7.86
2019-05-12T00:05:39.484Z,8.02
2019-05-12T00:08:08.454Z,7.87
2019-05-12T00:10:38.698Z,7.86
2019-05-12T00:13:08.412Z,7.89
2019-05-12T00:15:38.459Z,7.86
2019-05-12T00:18:09.143Z,7.89
2019-05-12T00:20:38.667Z,7.91
2019-05-12T00:23:23.367Z,7.90
2019-05-12T00:25:38.799Z,7.85
2019-05-12T00:28:07.945Z,7.66
2019-05-12T00:30:39.058Z,7.67
2019-05-12T00:33:09.340Z,7.80
2019-05-12T00:35:38.454Z,7.86
2019-05-12T00:38:08.958Z,7.82
2019-05-12T00:40:39.171Z,7.85
2019-05-12T00:43:08.879Z,7.84
2019-05-12T00:45:39.005Z,7.92
2019-05-12T00:48:09.230Z,7.88
2019-05-12T00:50:38.630Z,7.83
2019-05-12T00:53:09.139Z,7.90
2019-05-12T00:55:38.372Z,7.88
2019-05-12T00:58:08.157Z,7.90
2019-05-12T01:00:40.572Z,7.80
2019-05-12T01:03:08.658Z,7.77
2019-05-12T01:05:38.564Z,7.82
2019-05-12T01:08:09.134Z,7.82
2019-05-12T01:10:39.200Z,7.87
2019-05-12T01:13:08.826Z,7.82
2019-05-12T01:15:38.074Z,7.88
2019-05-12T01:18:09.300Z,7.82
2019-05-12T01:20:39.023Z,7.83
2019-05-12T01:23:08.749Z,7.82
2019-05-12T01:25:39.636Z,7.79
2019-05-12T01:28:08.627Z,7.71
2019-05-12T01:30:39.071Z,7.57
2019-05-12T01:33:08.623Z,7.67
2019-05-12T01:35:39.936Z,7.63
2019-05-12T01:38:08.488Z,7.72
2019-05-12T01:40:39.296Z,7.79
2019-05-12T01:43:08.645Z,7.78
2019-05-12T01:45:39.034Z,7.86
2019-05-12T01:48:09.037Z,7.77
2019-05-12T01:50:38.825Z,7.69
2019-05-12T01:53:08.411Z,7.68
2019-05-12T01:55:38.552Z,7.56
2019-05-12T01:58:08.483Z,7.63
2019-05-12T02:00:38.886Z,7.73
2019-05-12T02:03:09.088Z,7.63
2019-05-12T02:05:39.778Z,7.69
2019-05-12T02:10:44.336Z,7.80
2019-05-12T02:13:13.047Z,7.78
2019-05-12T02:15:41.746Z,7.79
2019-05-12T02:18:10.413Z,7.64
2019-05-12T02:20:39.119Z,7.42
2019-05-12T02:23:09.030Z,7.58
2019-05-12T02:25:39.298Z,7.60
2019-05-12T02:28:09.116Z,7.65
2019-05-12T02:30:41.686Z,7.84
2019-05-12T02:33:08.823Z,7.75
2019-05-12T02:35:37.512Z,7.80
2019-05-12T02:38:06.182Z,7.83
2019-05-12T02:40:35.276Z,7.77
2019-05-12T02:43:05.509Z,7.79
2019-05-12T02:45:35.970Z,7.72
2019-05-12T02:48:06.042Z,7.63
2019-05-12T02:50:36.999Z,7.51
2019-05-12T02:53:06.320Z,7.58
2019-05-12T02:55:36.056Z,7.60
2019-05-12T02:58:06.101Z,7.55
2019-05-12T03:00:36.708Z,7.65
2019-05-12T03:03:06.351Z,7.59
2019-05-12T03:05:36.057Z,7.59
2019-05-12T03:08:05.215Z,7.45
2019-05-12T03:10:35.799Z,7.48
2019-05-12T03:13:04.977Z,7.51
2019-05-12T03:15:36.423Z,7.53
2019-05-12T03:18:06.355Z,7.60
2019-05-12T03:20:35.427Z,7.62
2019-05-12T03:23:05.895Z,7.65
2019-05-12T03:25:36.419Z,7.66
2019-05-12T03:28:08.836Z,7.65
2019-05-12T03:30:39.205Z,7.70
2019-05-12T03:33:10.484Z,7.67
2019-05-12T03:35:43.135Z,7.67
2019-05-12T03:38:07.387Z,7.61
2019-05-12T03:40:38.394Z,7.67
2019-05-12T03:43:06.486Z,7.62
2019-05-12T03:45:36.195Z,7.68
2019-05-12T03:48:06.109Z,7.75
2019-05-12T03:50:36.123Z,7.72
2019-05-12T03:53:10.048Z,7.68
2019-05-12T03:55:41.878Z,7.72
2019-05-12T03:58:06.861Z,7.59
2019-05-12T04:00:36.353Z,7.63
2019-05-12T04:03:06.226Z,7.70
2019-05-12T04:05:36.007Z,7.70
2019-05-12T04:08:06.415Z,7.61
2019-05-12T04:10:36.909Z,7.60
2019-05-12T04:13:06.469Z,7.45
2019-05-12T04:15:37.358Z,7.43
2019-05-12T04:18:06.492Z,7.61
2019-05-12T04:20:36.145Z,7.62
2019-05-12T04:23:06.601Z,7.67
2019-05-12T04:25:50.984Z,7.56
2019-05-12T04:28:06.152Z,7.47
2019-05-12T04:30:35.840Z,7.51
2019-05-12T04:33:05.788Z,7.47
2019-05-12T04:35:35.732Z,7.56
2019-05-12T04:38:05.301Z,7.29
2019-05-12T04:40:36.005Z,7.39
2019-05-12T04:43:06.492Z,7.34
2019-05-12T04:45:35.862Z,7.35
2019-05-12T04:48:06.272Z,7.44
2019-05-12T04:50:36.197Z,7.50
2019-05-12T04:53:07.963Z,7.52
2019-05-12T04:55:36.878Z,7.33
2019-05-12T04:58:06.399Z,7.30
2019-05-12T05:00:35.935Z,7.34
2019-05-12T05:03:05.753Z,7.24
2019-05-12T05:05:35.844Z,7.29
2019-05-12T05:08:05.342Z,7.18
2019-05-12T05:10:35.004Z,7.35
2019-05-12T05:13:05.244Z,7.34
2019-05-12T05:15:35.023Z,7.26
2019-05-12T05:18:06.390Z,7.26
2019-05-12T05:20:34.830Z,7.14
2019-05-12T05:23:07.309Z,7.37
2019-05-12T05:25:36.066Z,7.38
2019-05-12T05:28:05.591Z,7.57
2019-05-12T05:30:34.544Z,7.44
2019-05-12T05:33:04.564Z,7.51
2019-05-12T05:35:39.267Z,7.49
2019-05-12T05:38:05.809Z,7.46
2019-05-12T05:40:35.663Z,7.46
2019-05-12T05:43:12.525Z,7.48
2019-05-12T05:45:35.623Z,7.66
2019-05-12T05:48:09.813Z,7.61
2019-05-12T05:50:35.234Z,7.51
2019-05-12T05:53:04.279Z,7.87
2019-05-12T05:55:34.208Z,7.66
2019-05-12T05:58:10.380Z,7.72
2019-05-12T06:00:34.720Z,7.47
2019-05-12T06:03:05.626Z,7.40
2019-05-12T06:05:38.213Z,7.47
2019-05-12T06:08:09.672Z,7.38
2019-05-12T06:10:40.132Z,7.50
2019-05-12T06:13:05.701Z,7.47
2019-05-12T06:15:40.386Z,7.62
2019-05-12T06:18:05.234Z,7.55
2019-05-12T06:20:37.746Z,7.52
2019-05-12T06:23:04.652Z,7.45
2019-05-12T06:25:46.131Z,7.62
2019-05-12T06:28:08.713Z,7.64
2019-05-12T06:30:44.327Z,7.60
2019-05-12T06:33:08.436Z,7.54
2019-05-12T06:35:42.119Z,7.65
2019-05-12T06:38:13.429Z,7.42
2019-05-12T06:40:44.712Z,7.30
2019-05-12T06:43:13.948Z,7.28
2019-05-12T06:45:45.550Z,7.28
2019-05-12T06:48:13.994Z,7.42
2019-05-12T06:50:44.240Z,7.24
2019-05-12T06:53:13.951Z,7.16
2019-05-12T06:55:43.378Z,7.09
2019-05-12T06:58:14.038Z,7.19
2019-05-12T07:00:43.732Z,7.24
2019-05-12T07:03:14.265Z,7.32
2019-05-12T07:05:45.328Z,7.28
2019-05-12T07:08:20.138Z,7.34
2019-05-12T07:10:46.925Z,7.39
2019-05-12T07:13:22.752Z,7.32
2019-05-12T07:15:44.775Z,7.28
2019-05-12T07:18:17.694Z,7.15
2019-05-12T07:20:45.518Z,7.09
2019-05-12T07:23:14.448Z,7.15
2019-05-12T07:25:44.729Z,7.24
2019-05-12T07:28:14.389Z,7.35
2019-05-12T07:30:44.085Z,7.42
2019-05-12T07:33:14.597Z,7.30
2019-05-12T07:35:44.611Z,7.21
2019-05-12T07:38:21.116Z,7.39
2019-05-12T07:40:46.015Z,7.44
2019-05-12T07:43:20.357Z,7.19
2019-05-12T07:45:56.676Z,7.32
2019-05-12T07:48:18.817Z,7.48
2019-05-12T07:50:50.278Z,7.68
2019-05-12T07:53:18.011Z,7.36
2019-05-12T07:55:49.331Z,7.43
2019-05-12T07:58:19.156Z,7.37
2019-05-12T08:00:47.685Z,7.26
2019-05-12T08:03:21.183Z,7.39
2019-05-12T08:05:51.430Z,7.49
2019-05-12T08:08:17.324Z,7.59
2019-05-12T08:10:51.433Z,7.57
2019-05-12T08:13:18.677Z,7.60
2019-05-12T08:15:50.193Z,7.86
2019-05-12T08:18:17.225Z,7.61
2019-05-12T08:20:46.036Z,7.45
2019-05-12T08:23:14.650Z,7.46
2019-05-12T08:25:43.878Z,7.52
2019-05-12T08:28:18.305Z,7.61
2019-05-12T08:30:47.328Z,7.59
2019-05-12T08:33:14.728Z,7.70
2019-05-12T08:35:44.068Z,7.45
2019-05-12T08:38:14.623Z,7.48
2019-05-12T08:40:48.801Z,7.62
2019-05-12T08:43:14.987Z,7.50
2019-05-12T08:45:44.358Z,7.64
2019-05-12T08:48:21.241Z,7.85
2019-05-12T08:50:46.203Z,7.58
2019-05-12T08:53:21.315Z,7.52
2019-05-12T08:55:45.487Z,7.53
2019-05-12T08:58:29.678Z,7.60
2019-05-12T09:00:50.388Z,7.71
2019-05-12T09:03:14.985Z,7.71
2019-05-12T09:05:47.971Z,7.72
2019-05-12T09:08:16.690Z,7.88
2019-05-12T09:10:55.480Z,7.84
2019-05-12T09:13:26.216Z,7.98
2019-05-12T09:15:56.361Z,8.25
2019-05-12T09:18:33.616Z,8.35
2019-05-12T09:20:55.916Z,8.33
2019-05-12T09:23:24.749Z,8.32
2019-05-12T09:25:55.481Z,8.15
2019-05-12T09:28:24.065Z,8.23
2019-05-12T09:30:54.357Z,8.34
2019-05-12T09:33:27.613Z,8.53
2019-05-12T09:35:54.060Z,8.53
2019-05-12T09:38:26.102Z,8.31
2019-05-12T09:41:00.703Z,8.50
2019-05-12T09:43:24.060Z,8.29
2019-05-12T09:45:56.428Z,8.39
2019-05-12T09:48:24.678Z,8.58
2019-05-12T09:51:00.244Z,8.75
2019-05-12T09:53:26.974Z,8.72
2019-05-12T09:55:58.496Z,8.22
2019-05-12T09:58:27.917Z,8.53
2019-05-12T10:00:56.785Z,8.31
2019-05-12T10:03:25.818Z,8.32
2019-05-12T10:05:54.439Z,8.37
2019-05-12T10:08:24.213Z,8.42
2019-05-12T10:10:53.577Z,8.60
2019-05-12T10:13:28.128Z,8.23
2019-05-12T10:15:53.567Z,7.99
2019-05-12T10:18:24.400Z,8.22
2019-05-12T10:20:53.470Z,8.30
2019-05-12T10:23:25.154Z,8.40
2019-05-12T10:25:53.828Z,8.44
2019-05-12T10:28:24.098Z,8.13
2019-05-12T10:30:56.775Z,8.26
2019-05-12T10:33:23.405Z,8.21
2019-05-12T10:35:54.075Z,8.11
2019-05-12T10:38:24.181Z,7.94
2019-05-12T10:40:53.087Z,8.14
2019-05-12T10:43:23.676Z,8.21
2019-05-12T10:45:53.792Z,8.32
2019-05-12T10:48:23.375Z,8.40
2019-05-12T10:50:53.617Z,8.00
2019-05-12T10:53:23.538Z,7.96
2019-05-12T10:55:54.311Z,8.15
2019-05-12T10:58:24.852Z,8.21
2019-05-12T11:00:53.770Z,8.08
2019-05-12T11:03:24.422Z,8.14
2019-05-12T11:05:54.623Z,8.13
2019-05-12T11:08:24.749Z,8.40
2019-05-12T11:10:59.213Z,8.14
2019-05-12T11:13:23.946Z,8.27
2019-05-12T11:15:54.553Z,8.40
2019-05-12T11:18:26.242Z,8.19
2019-05-12T11:20:54.427Z,8.10
2019-05-12T11:23:24.460Z,8.25
2019-05-12T11:25:53.578Z,8.38
2019-05-12T11:28:24.513Z,8.67
2019-05-12T11:30:52.684Z,8.25
2019-05-12T11:33:23.650Z,8.02
2019-05-12T11:35:54.112Z,8.10
2019-05-12T11:38:24.428Z,8.02
2019-05-12T11:40:53.754Z,8.03
2019-05-12T11:43:24.832Z,7.97
2019-05-12T11:45:53.554Z,8.24
2019-05-12T11:48:24.066Z,8.04
2019-05-12T11:50:54.669Z,7.99
2019-05-12T11:53:30.421Z,7.88
2019-05-12T11:55:54.447Z,7.93
2019-05-12T11:58:23.606Z,8.13
2019-05-12T12:00:58.700Z,8.29
2019-05-12T12:03:24.437Z,8.12
2019-05-12T12:05:53.757Z,8.12
2019-05-12T12:08:26.187Z,8.23
2019-05-12T12:10:54.665Z,8.12
2019-05-12T12:13:27.845Z,8.20
2019-05-12T12:15:54.041Z,8.19
2019-05-12T12:18:23.565Z,8.06
2019-05-12T12:20:57.177Z,8.17
2019-05-12T12:23:22.944Z,7.91
2019-05-12T12:25:53.454Z,7.84
2019-05-12T12:28:24.158Z,7.89
2019-05-12T12:30:56.775Z,7.97
2019-05-12T12:33:23.459Z,7.80
2019-05-12T12:35:56.553Z,7.96
2019-05-12T12:38:22.803Z,7.90
2019-05-12T12:40:53.609Z,7.87
2019-05-12T12:43:21.970Z,7.80
2019-05-12T12:45:55.104Z,7.77
2019-05-12T12:48:25.552Z,7.80
2019-05-12T12:50:54.146Z,7.87
2019-05-12T12:53:27.563Z,7.66
2019-05-12T12:55:58.352Z,7.66
2019-05-12T12:58:30.941Z,7.74
2019-05-12T13:00:57.113Z,7.79
2019-05-12T13:03:29.900Z,7.65
2019-05-12T13:05:56.621Z,7.55
2019-05-12T13:08:26.664Z,7.42
2019-05-12T13:10:55.323Z,7.46
2019-05-12T13:13:24.581Z,7.42
2019-05-12T13:15:53.679Z,7.58
2019-05-12T13:18:28.054Z,7.63
2019-05-12T13:20:54.011Z,7.60
2019-05-12T13:23:36.762Z,7.61
2019-05-12T13:25:54.694Z,7.70
2019-05-12T13:28:25.716Z,7.77
2019-05-12T13:31:07.943Z,7.83
2019-05-12T13:33:25.931Z,7.75
2019-05-12T13:35:55.653Z,7.68
2019-05-12T13:38:25.015Z,7.81
2019-05-12T13:40:54.193Z,7.79
2019-05-12T13:43:23.832Z,7.97
2019-05-12T13:45:53.487Z,8.08
2019-05-12T13:48:23.980Z,8.21
2019-05-12T13:50:54.370Z,8.05
2019-05-12T13:53:24.489Z,7.95
2019-05-12T13:55:54.356Z,7.93
2019-05-12T13:58:23.257Z,7.91
2019-05-12T14:01:12.585Z,7.76
2019-05-12T14:03:27.651Z,7.65
2019-05-12T14:05:55.285Z,7.53
2019-05-12T14:08:24.964Z,7.57
2019-05-12T14:10:58.668Z,7.63
2019-05-12T14:13:24.700Z,7.66
2019-05-12T14:15:53.880Z,7.65
2019-05-12T14:18:24.109Z,7.86
2019-05-12T14:20:58.432Z,7.48
2019-05-12T14:23:24.490Z,7.59
2019-05-12T14:25:54.309Z,7.87
2019-05-12T14:28:23.546Z,7.65
2019-05-12T14:30:54.522Z,7.58
2019-05-12T14:33:24.699Z,7.61
2019-05-12T14:35:53.727Z,7.49
2019-05-12T14:38:27.473Z,7.49
2019-05-12T14:40:53.782Z,7.53
2019-05-12T14:43:24.023Z,7.37
2019-05-12T14:45:54.149Z,7.27
2019-05-12T14:48:23.171Z,7.37
2019-05-12T14:50:53.504Z,7.41
2019-05-12T14:53:23.695Z,7.42
2019-05-12T14:55:53.526Z,7.38
2019-05-12T14:58:23.679Z,7.41
2019-05-12T15:00:56.224Z,7.45
2019-05-12T15:03:24.724Z,7.46
2019-05-12T15:05:54.490Z,7.37
2019-05-12T15:08:35.554Z,7.47
2019-05-12T15:10:53.977Z,7.32
2019-05-12T15:13:24.057Z,7.44
2019-05-12T15:15:59.952Z,7.30
2019-05-12T15:18:26.094Z,7.33
2019-05-12T15:20:54.852Z,7.23
2019-05-12T15:23:32.191Z,7.30
2019-05-12T15:25:54.444Z,7.24
2019-05-12T15:28:23.661Z,7.27
2019-05-12T15:30:54.188Z,7.27
2019-05-12T15:33:24.258Z,6.98
2019-05-12T15:35:54.654Z,6.92
2019-05-12T15:38:24.066Z,7.18
2019-05-12T15:40:53.756Z,7.09
2019-05-12T15:43:24.332Z,6.99
2019-05-12T15:45:55.452Z,7.01
2019-05-12T15:48:26.100Z,7.03
2019-05-12T15:50:54.194Z,7.17
2019-05-12T15:53:26.922Z,6.96
2019-05-12T15:55:54.877Z,7.00
2019-05-12T15:58:24.754Z,6.98
2019-05-12T16:00:55.184Z,6.91
2019-05-12T16:03:26.412Z,7.16
2019-05-12T16:05:54.753Z,7.07
2019-05-12T16:08:24.476Z,6.97
2019-05-12T16:10:53.618Z,6.85
2019-05-12T16:13:24.445Z,6.79
2019-05-12T16:15:57.542Z,6.87
2019-05-12T16:18:26.659Z,6.73
2019-05-12T16:20:58.882Z,6.85
2019-05-12T16:23:29.866Z,6.75
2019-05-12T16:25:55.283Z,6.77
2019-05-12T16:28:26.559Z,6.74
2019-05-12T16:30:58.845Z,6.80
2019-05-12T16:33:25.172Z,6.79
2019-05-12T16:35:54.651Z,6.78
2019-05-12T16:38:23.744Z,6.82
2019-05-12T16:40:53.897Z,6.78
2019-05-12T16:43:23.819Z,6.78
2019-05-12T16:45:54.950Z,6.81
2019-05-12T16:48:30.418Z,6.76
2019-05-12T16:50:54.374Z,6.73
2019-05-12T16:53:27.923Z,6.80
2019-05-12T16:55:56.574Z,6.82
2019-05-12T16:58:32.732Z,6.76
2019-05-12T17:00:55.761Z,6.66
2019-05-12T17:03:24.714Z,6.69
2019-05-12T17:05:55.919Z,6.74
2019-05-12T17:08:24.226Z,6.83
2019-05-12T17:11:00.929Z,6.75
2019-05-12T17:13:23.819Z,6.79
2019-05-12T17:15:59.830Z,6.65
2019-05-12T17:18:24.977Z,6.67
2019-05-12T17:20:54.722Z,6.65
2019-05-12T17:23:24.561Z,6.63
2019-05-12T17:25:54.568Z,6.65
2019-05-12T17:28:23.915Z,6.39
2019-05-12T17:30:54.331Z,6.38
2019-05-12T17:33:27.513Z,6.49
2019-05-12T17:35:57.179Z,6.62
2019-05-12T17:38:25.963Z,6.55
2019-05-12T17:41:00.587Z,6.49
2019-05-12T17:43:26.593Z,6.52
2019-05-12T17:45:59.976Z,6.44
2019-05-12T17:48:27.640Z,6.40
2019-05-12T17:50:58.163Z,6.42
2019-05-12T17:53:30.486Z,6.46
2019-05-12T17:55:57.938Z,6.42
2019-05-12T17:58:29.779Z,6.42
2019-05-12T18:00:57.643Z,6.54
2019-05-12T18:03:26.455Z,6.33
2019-05-12T18:05:55.517Z,6.28
2019-05-12T18:08:32.335Z,6.46
2019-05-12T18:10:55.414Z,6.42
2019-05-12T18:13:27.533Z,6.41
2019-05-12T18:15:58.616Z,6.34
2019-05-12T18:18:32.622Z,6.32
2019-05-12T18:20:59.675Z,6.15
2019-05-12T18:23:30.306Z,6.28
2019-05-12T18:26:03.080Z,6.18
2019-05-12T18:28:30.079Z,6.15
2019-05-12T18:30:58.896Z,6.17
2019-05-12T18:33:33.788Z,6.29
2019-05-12T18:35:59.910Z,6.30
2019-05-12T18:38:31.903Z,6.18
2019-05-12T18:41:03.562Z,6.17
2019-05-12T18:43:35.052Z,6.27
2019-05-12T18:46:09.041Z,6.25
2019-05-12T18:48:36.944Z,6.27
2019-05-12T18:51:11.783Z,6.18
2019-05-12T18:53:37.835Z,6.15
2019-05-12T18:56:10.168Z,6.22
2019-05-12T18:58:39.532Z,6.19
2019-05-12T19:01:10.049Z,6.18
2019-05-12T19:03:49.851Z,6.18
2019-05-12T19:06:09.693Z,6.10
2019-05-12T19:08:38.654Z,6.03
2019-05-12T19:11:18.854Z,6.16
2019-05-12T19:13:57.442Z,6.21
2019-05-12T19:16:28.410Z,6.19
2019-05-12T19:18:57.392Z,6.08
2019-05-12T19:21:27.619Z,6.07
2019-05-12T19:23:56.797Z,6.02
2019-05-12T19:26:25.878Z,5.97
2019-05-12T19:28:57.823Z,6.07
2019-05-12T19:31:25.423Z,6.06
2019-05-12T19:34:14.477Z,6.06
2019-05-12T19:36:25.849Z,6.00
2019-05-12T19:38:54.649Z,6.02
2019-05-12T19:41:24.496Z,6.03
2019-05-12T19:43:53.585Z,5.84
2019-05-12T19:46:23.965Z,5.82
2019-05-12T19:48:53.955Z,6.04
2019-05-12T19:51:28.016Z,5.96
2019-05-12T19:53:54.995Z,6.02
2019-05-12T19:56:24.016Z,6.04
2019-05-12T19:58:53.859Z,5.96
2019-05-12T20:01:26.112Z,5.83
2019-05-12T20:03:55.553Z,5.71
2019-05-12T20:06:24.410Z,5.82
2019-05-12T20:09:05.619Z,5.88
2019-05-12T20:11:26.538Z,5.93
2019-05-12T20:13:54.064Z,5.87
2019-05-12T20:16:27.790Z,5.87
2019-05-12T20:18:57.717Z,5.79
2019-05-12T20:21:26.022Z,5.80
2019-05-12T20:23:54.481Z,5.73
2019-05-12T20:26:24.981Z,5.68
2019-05-12T20:28:55.602Z,5.80
2019-05-12T20:31:27.286Z,5.83
2019-05-12T20:34:04.056Z,5.89
2019-05-12T20:36:25.907Z,5.88
2019-05-12T20:38:55.768Z,5.87
2019-05-12T20:41:26.785Z,5.95
2019-05-12T20:43:54.985Z,5.92
2019-05-12T20:46:25.773Z,5.87
2019-05-12T20:48:54.104Z,5.80
2019-05-12T20:51:24.442Z,5.81
2019-05-12T20:53:53.329Z,5.74
2019-05-12T20:56:24.882Z,5.69
2019-05-12T20:58:52.743Z,5.72
2019-05-12T21:01:28.357Z,5.77
2019-05-12T21:03:51.959Z,5.77
2019-05-12T21:06:20.744Z,5.87
2019-05-12T21:08:53.501Z,5.87
2019-05-12T21:11:19.978Z,5.90
2019-05-12T21:13:48.645Z,5.89
2019-05-12T21:16:20.295Z,5.92
2019-05-12T21:18:55.702Z,5.90
2019-05-12T21:21:18.323Z,5.97
2019-05-12T21:23:53.702Z,5.89
2019-05-12T21:26:17.518Z,5.89
2019-05-12T21:28:48.289Z,5.82
2019-05-12T21:31:20.617Z,5.91
2019-05-12T21:33:47.743Z,5.86
2019-05-12T21:36:24.359Z,5.79
2019-05-12T21:38:46.879Z,5.74
2019-05-12T21:41:15.709Z,5.70
2019-05-12T21:43:46.078Z,5.73
2019-05-12T21:46:15.564Z,5.75
2019-05-12T21:48:44.598Z,5.72
2019-05-12T21:51:16.841Z,5.76
2019-05-12T21:53:44.834Z,5.78
2019-05-12T21:56:14.047Z,5.73
2019-05-12T21:58:53.455Z,5.72
2019-05-12T22:01:14.067Z,5.76
2019-05-12T22:03:46.061Z,5.77
2019-05-12T22:06:21.127Z,5.76
2019-05-12T22:08:44.227Z,5.70
2019-05-12T22:11:13.326Z,5.63
2019-05-12T22:13:47.258Z,5.67
2019-05-12T22:16:14.202Z,5.69
2019-05-12T22:18:43.887Z,5.72
2019-05-12T22:21:13.638Z,5.69
2019-05-12T22:23:50.928Z,5.65
2019-05-12T22:26:13.015Z,5.70
2019-05-12T22:28:46.618Z,5.71
2019-05-12T22:31:13.760Z,5.65
2019-05-12T22:33:49.863Z,5.71
2019-05-12T22:36:20.756Z,5.65
2019-05-12T22:38:44.410Z,5.64
2019-05-12T22:41:13.659Z,5.67
2019-05-12T22:43:45.737Z,5.66
2019-05-12T22:46:16.210Z,5.72
2019-05-12T22:48:45.344Z,5.67
2019-05-12T22:51:21.090Z,5.66
2019-05-12T22:53:44.646Z,5.69
2019-05-12T22:56:17.974Z,5.68
2019-05-12T22:58:44.210Z,5.69
2019-05-12T23:01:14.435Z,5.67
2019-05-12T23:03:51.220Z,5.67
2019-05-12T23:06:23.802Z,5.53
2019-05-12T23:08:49.099Z,5.51
2019-05-12T23:11:14.767Z,5.54
2019-05-12T23:13:43.450Z,5.57
2019-05-12T23:16:14.177Z,5.63
2019-05-12T23:18:44.456Z,5.58
2019-05-12T23:21:17.479Z,5.58
2019-05-12T23:23:43.727Z,5.58
2019-05-12T23:26:13.885Z,5.54
2019-05-12T23:28:46.724Z,5.63
2019-05-12T23:31:13.464Z,5.56
2019-05-12T23:33:44.149Z,5.56
2019-05-12T23:36:15.805Z,5.53
2019-05-12T23:38:44.073Z,5.52
2019-05-12T23:41:13.582Z,5.55
2019-05-12T23:43:42.536Z,5.53
2019-05-12T23:46:11.323Z,5.41
2019-05-12T23:48:40.198Z,5.32
2019-05-12T23:51:09.636Z,5.22
2019-05-12T23:53:38.418Z,5.20
2019-05-12T23:56:07.112Z,5.38
2019-05-12T23:58:35.884Z,5.42
